Columbus, Ohio
Traffic Map
Current Weather Conditions
Columbus, Ohio
Clear
Clear
61°
Feels Like: 61°
Wind Chill: 61° Ceiling: Unl
Heat Index: 61° Visibility: 10mi
Dew Point: 52° Wind: 5mph
Humidity: 72% Direction: 70° (ENE)
Pressure: 30.02in Gusts: 0mph
Raw Report DataKCMH 012351Z 07004KT 10SM CLR 16/11 A3002 RMK AO2 SLP163 T01610111 10217 20161 53006
Traffic Incident Summary
Active as of:
Severity:
Category:
InformationThere was an issue retrieving the traffic information for this location. Please try a different location or try again shortly.
Advertisements
Track Severe Weather on mobile